Time;durP1;ratioP1;P1;durP2;ratioP2;P2;SDS_P1;SDS_P2;PMS_P1;PMS_P2;Temp;Humidity;BMP_temperature;BMP_pressure;BME280_temperature;BME280_humidity;BME280_pressure;Samples;Min_cycle;Max_cycle;Signal;HPM_P1;HPM_P2
2023/10/20 04:00:52;;;;;;;4.85;3.53;;;7.10;99.90;;;;;;5739319;23;20229;-69
2023/10/20 04:03:19;;;;;;;2.80;2.60;;;7.10;99.90;;;;;;4953969;28;20231;-70
2023/10/20 04:05:46;;;;;;;4.32;3.92;;;7.10;99.90;;;;;;4953479;28;20239;-69
2023/10/20 04:08:13;;;;;;;3.47;3.28;;;7.10;99.90;;;;;;4953550;28;20209;-69
2023/10/20 04:10:40;;;;;;;3.08;2.88;;;7.10;99.90;;;;;;4953826;28;20295;-69
2023/10/20 04:13:07;;;;;;;3.13;2.92;;;7.10;99.90;;;;;;4953394;28;20234;-68
2023/10/20 04:15:36;;;;;;;3.10;2.90;;;7.00;99.90;;;;;;4953355;28;20594;-68
2023/10/20 04:18:08;;;;;;;2.88;2.78;;;7.00;99.90;;;;;;4954889;28;20233;-69
2023/10/20 04:20:39;;;;;;;2.63;2.50;;;7.00;99.90;;;;;;4947118;28;20321;-69
2023/10/20 04:23:12;;;;;;;4.20;3.80;;;7.00;99.90;;;;;;4955669;28;20249;-70
2023/10/20 04:25:49;;;;;;;3.15;2.95;;;7.00;99.90;;;;;;4947068;28;20227;-69
2023/10/20 04:28:20;;;;;;;2.35;2.20;;;7.00;99.90;;;;;;4947326;28;20292;-69
2023/10/20 04:45:36;;;;;;;3.42;3.25;;;7.00;99.90;;;;;;4955006;28;20213;-71
2023/10/20 04:48:15;;;;;;;3.30;3.10;;;6.90;99.90;;;;;;4928292;29;20218;-71
2023/10/20 04:53:53;;;;;;;3.63;3.42;;;6.90;99.90;;;;;;4942763;29;20215;-70
2023/10/20 04:56:38;;;;;;;3.53;3.33;;;6.90;99.90;;;;;;4956810;28;20221;-71
2023/10/20 04:59:20;;;;;;;2.22;2.13;;;6.90;99.90;;;;;;4947719;29;20217;-71
2023/10/20 05:01:58;;;;;;;2.65;2.50;;;6.90;99.90;;;;;;4958165;28;20300;-70
2023/10/20 05:04:40;;;;;;;2.95;2.60;;;6.90;99.90;;;;;;4955672;28;20212;-71
2023/10/20 05:07:09;;;;;;;2.40;2.40;;;6.90;99.90;;;;;;4954323;29;20219;-70
2023/10/20 05:09:43;;;;;;;4.18;3.88;;;6.90;99.90;;;;;;4957849;28;20220;-70
2023/10/20 05:12:15;;;;;;;2.72;2.63;;;6.90;99.90;;;;;;4949593;28;20240;-70
2023/10/20 05:14:50;;;;;;;3.13;2.45;;;6.90;99.90;;;;;;4949604;28;20217;-70
2023/10/20 05:17:24;;;;;;;3.08;2.90;;;6.90;99.90;;;;;;4941111;28;20786;-71
2023/10/20 05:19:57;;;;;;;3.00;2.90;;;6.90;99.90;;;;;;4957515;28;20224;-71
2023/10/20 05:22:27;;;;;;;2.50;2.35;;;6.90;99.90;;;;;;4957403;28;20327;-70
2023/10/20 05:24:59;;;;;;;2.20;2.10;;;6.90;99.90;;;;;;4948984;28;20587;-71
2023/10/20 05:27:28;;;;;;;3.08;2.70;;;6.90;99.90;;;;;;4956741;28;20731;-70
2023/10/20 05:30:00;;;;;;;2.50;2.38;;;6.80;99.90;;;;;;4957179;28;20672;-70
2023/10/20 05:32:31;;;;;;;2.15;2.05;;;6.80;99.90;;;;;;4957514;28;20247;-70
2023/10/20 05:34:59;;;;;;;2.72;2.53;;;6.80;99.90;;;;;;4956899;28;20209;-70
2023/10/20 05:37:34;;;;;;;4.28;2.92;;;6.80;99.90;;;;;;4957229;29;20269;-70
2023/10/20 05:40:02;;;;;;;2.83;2.60;;;6.80;99.90;;;;;;4957748;28;20221;-70
2023/10/20 05:42:29;;;;;;;3.13;2.58;;;6.80;99.90;;;;;;4946864;28;20667;-70
2023/10/20 05:45:09;;;;;;;2.83;2.72;;;6.80;99.90;;;;;;4947289;29;20791;-70
2023/10/20 05:47:47;;;;;;;2.75;2.55;;;6.80;99.90;;;;;;4943296;29;20216;-70
2023/10/20 05:50:20;;;;;;;2.58;2.20;;;6.80;99.90;;;;;;4949735;28;20212;-71
2023/10/20 05:52:54;;;;;;;2.38;2.25;;;6.80;99.90;;;;;;4952258;28;20225;-70
2023/10/20 05:55:22;;;;;;;2.45;2.40;;;6.80;99.90;;;;;;4948422;29;20213;-70
2023/10/20 05:57:50;;;;;;;2.28;2.17;;;6.80;99.90;;;;;;4957942;28;20240;-70
2023/10/20 06:00:22;;;;;;;2.80;2.60;;;6.70;99.90;;;;;;4956892;28;20220;-71
2023/10/20 06:02:55;;;;;;;1.30;1.30;;;6.70;99.90;;;;;;4957336;28;20272;-71
2023/10/20 06:05:28;;;;;;;1.92;1.90;;;6.70;99.90;;;;;;4947032;28;20747;-70
2023/10/20 06:07:57;;;;;;;1.90;1.80;;;6.70;99.90;;;;;;4953031;29;20606;-71
2023/10/20 06:10:28;;;;;;;2.20;2.20;;;6.70;99.90;;;;;;4950029;28;20548;-71
2023/10/20 06:12:56;;;;;;;2.35;1.85;;;6.70;99.90;;;;;;4957561;28;20213;-71
2023/10/20 06:15:24;;;;;;;2.20;2.10;;;6.70;99.90;;;;;;4941949;28;20680;-71
2023/10/20 06:17:52;;;;;;;1.98;1.88;;;6.70;99.90;;;;;;4957840;28;20718;-71
2023/10/20 06:20:22;;;;;;;1.95;1.85;;;6.70;99.90;;;;;;4955188;28;20771;-70
2023/10/20 06:22:53;;;;;;;1.88;1.77;;;6.70;99.90;;;;;;4950884;29;20664;-70
2023/10/20 06:25:22;;;;;;;1.90;1.80;;;6.70;99.90;;;;;;4956397;28;20304;-71
2023/10/20 06:27:48;;;;;;;1.40;1.40;;;6.70;99.90;;;;;;4955735;29;20597;-69
2023/10/20 06:30:19;;;;;;;2.33;1.70;;;6.70;99.90;;;;;;4955016;28;20224;-69
2023/10/20 06:32:51;;;;;;;2.38;2.10;;;6.70;99.90;;;;;;4955576;28;20220;-69
2023/10/20 06:35:18;;;;;;;1.33;1.33;;;6.70;99.90;;;;;;4955280;28;20589;-69
2023/10/20 06:37:55;;;;;;;1.70;1.60;;;6.70;99.90;;;;;;4955018;28;20320;-70
2023/10/20 06:40:23;;;;;;;2.22;2.03;;;6.70;99.90;;;;;;4955323;28;20567;-70
2023/10/20 06:42:50;;;;;;;1.92;1.77;;;6.70;99.90;;;;;;4955265;28;20219;-69
2023/10/20 06:45:16;;;;;;;1.90;1.83;;;6.70;99.90;;;;;;4954932;28;20209;-69
2023/10/20 06:47:43;;;;;;;2.13;2.03;;;6.70;99.90;;;;;;4955015;28;20210;-69
2023/10/20 06:50:11;;;;;;;2.50;2.40;;;6.70;99.90;;;;;;4955007;28;20217;-69
2023/10/20 06:52:41;;;;;;;2.22;2.13;;;6.60;99.90;;;;;;4955700;28;20212;-71
2023/10/20 06:55:09;;;;;;;1.45;1.35;;;6.60;99.90;;;;;;4956654;28;20215;-71
2023/10/20 06:57:37;;;;;;;3.58;1.30;;;6.60;99.90;;;;;;4956556;28;20240;-71
2023/10/20 07:00:06;;;;;;;1.63;1.52;;;6.60;99.90;;;;;;4956909;28;20610;-71
2023/10/20 07:02:33;;;;;;;1.13;1.13;;;6.60;99.90;;;;;;4956345;29;20247;-71
2023/10/20 07:05:00;;;;;;;1.90;1.90;;;6.60;99.90;;;;;;4957188;28;20213;-71
2023/10/20 07:07:27;;;;;;;1.90;1.48;;;6.50;99.90;;;;;;4957064;28;20220;-71
2023/10/20 07:09:54;;;;;;;1.63;1.52;;;6.50;99.90;;;;;;4957333;28;20213;-71
2023/10/20 07:12:21;;;;;;;2.15;2.03;;;6.50;99.90;;;;;;4957374;28;20237;-71
2023/10/20 07:14:49;;;;;;;3.45;1.80;;;6.50;99.90;;;;;;4956985;28;20672;-71
2023/10/20 07:17:15;;;;;;;1.75;1.65;;;6.50;99.90;;;;;;4956019;28;20225;-71
2023/10/20 07:19:43;;;;;;;1.75;1.75;;;6.50;99.90;;;;;;4956844;28;20680;-71
2023/10/20 07:22:10;;;;;;;2.00;1.90;;;6.50;99.90;;;;;;4956175;28;20310;-71
2023/10/20 07:24:36;;;;;;;2.30;2.20;;;6.50;99.90;;;;;;4956922;28;20220;-71
2023/10/20 07:27:03;;;;;;;1.52;1.35;;;6.50;99.90;;;;;;4957011;28;20209;-71
2023/10/20 07:29:30;;;;;;;3.15;1.88;;;6.50;99.90;;;;;;4955780;28;20320;-71
2023/10/20 07:31:58;;;;;;;1.42;1.40;;;6.50;99.90;;;;;;4948386;28;20234;-71
2023/10/20 07:34:27;;;;;;;1.90;1.70;;;6.50;99.90;;;;;;4954761;29;20221;-71
2023/10/20 07:36:54;;;;;;;1.88;1.77;;;6.50;99.90;;;;;;4954993;28;20224;-71
2023/10/20 07:39:21;;;;;;;2.17;2.10;;;6.40;99.90;;;;;;4955698;28;20699;-71
2023/10/20 07:41:48;;;;;;;2.63;2.42;;;6.40;99.90;;;;;;4955575;28;20236;-71
2023/10/20 07:44:18;;;;;;;2.75;2.53;;;6.40;99.90;;;;;;4955267;28;20217;-71
2023/10/20 07:46:45;;;;;;;3.75;2.67;;;6.40;99.90;;;;;;4954952;28;20702;-71
2023/10/20 07:49:14;;;;;;;2.92;2.72;;;6.40;99.90;;;;;;4956000;28;20231;-71
2023/10/20 07:51:40;;;;;;;4.88;2.75;;;6.40;99.90;;;;;;4954971;28;20233;-71
2023/10/20 07:54:09;;;;;;;3.13;2.80;;;6.40;99.90;;;;;;4955696;28;20213;-71
2023/10/20 07:56:36;;;;;;;3.78;3.03;;;6.40;99.90;;;;;;4955484;28;20213;-71
2023/10/20 07:59:03;;;;;;;3.28;2.95;;;6.40;99.90;;;;;;4956794;28;20247;-71
2023/10/20 08:01:30;;;;;;;4.88;4.20;;;6.40;99.90;;;;;;4956327;28;20719;-71
2023/10/20 08:03:57;;;;;;;3.22;2.95;;;6.30;99.90;;;;;;4956912;28;20213;-71
2023/10/20 08:06:25;;;;;;;4.68;3.53;;;6.30;99.90;;;;;;4955831;28;20213;-71
2023/10/20 08:08:52;;;;;;;3.53;3.22;;;6.30;99.90;;;;;;4956691;28;20216;-71
2023/10/20 08:11:19;;;;;;;5.55;3.30;;;6.30;99.90;;;;;;4955232;28;20229;-71
2023/10/20 08:13:50;;;;;;;4.03;3.55;;;6.30;99.90;;;;;;4955071;28;20586;-71
2023/10/20 08:16:20;;;;;;;5.07;3.80;;;6.40;99.90;;;;;;4954959;28;20640;-71
2023/10/20 08:18:46;;;;;;;4.70;3.55;;;6.30;99.90;;;;;;4954939;28;20237;-71
2023/10/20 08:21:15;;;;;;;3.88;3.58;;;6.40;99.90;;;;;;4954740;28;20229;-71
2023/10/20 08:23:44;;;;;;;4.40;3.65;;;6.40;99.90;;;;;;4955074;28;20223;-71
2023/10/20 08:26:19;;;;;;;6.10;5.50;;;6.40;99.90;;;;;;4953998;28;20267;-71
2023/10/20 08:28:46;;;;;;;3.90;3.60;;;6.40;99.90;;;;;;4956670;28;20208;-71
2023/10/20 08:31:16;;;;;;;6.32;4.07;;;6.40;99.90;;;;;;4957863;28;20243;-71
2023/10/20 08:33:43;;;;;;;5.10;4.63;;;6.40;99.90;;;;;;4958278;28;20213;-71
2023/10/20 08:36:12;;;;;;;5.63;4.22;;;6.40;99.90;;;;;;4957982;29;20217;-71
2023/10/20 08:38:40;;;;;;;5.57;4.32;;;6.30;99.90;;;;;;4958981;28;20349;-71
2023/10/20 08:41:13;;;;;;;5.47;4.50;;;6.30;99.90;;;;;;4958746;28;20237;-71
2023/10/20 08:43:40;;;;;;;3.53;3.28;;;6.40;99.90;;;;;;4959100;28;20304;-71
2023/10/20 08:46:09;;;;;;;8.90;4.90;;;6.40;99.90;;;;;;4957706;28;20268;-71
2023/10/20 08:48:38;;;;;;;5.30;4.80;;;6.30;99.90;;;;;;4957633;28;20225;-71
2023/10/20 08:51:05;;;;;;;4.15;3.55;;;6.30;99.90;;;;;;4958133;28;20666;-70
2023/10/20 08:53:34;;;;;;;7.75;5.25;;;6.30;99.90;;;;;;4957909;28;20216;-71
2023/10/20 08:56:02;;;;;;;9.35;6.30;;;6.30;99.90;;;;;;4957535;28;20213;-71
2023/10/20 08:58:30;;;;;;;6.65;5.63;;;6.30;99.90;;;;;;4957660;28;20232;-71
2023/10/20 09:00:58;;;;;;;4.53;4.10;;;6.30;99.90;;;;;;4958232;28;20237;-71
2023/10/20 09:03:26;;;;;;;7.03;4.40;;;6.30;99.90;;;;;;4957607;28;20291;-71
2023/10/20 09:05:53;;;;;;;4.32;3.90;;;6.30;99.90;;;;;;4957205;28;20303;-70
2023/10/20 09:08:21;;;;;;;6.22;5.50;;;6.30;99.90;;;;;;4957010;28;20208;-71
2023/10/20 09:10:48;;;;;;;14.18;5.88;;;6.30;99.90;;;;;;4957208;28;20327;-71
2023/10/20 09:13:14;;;;;;;8.48;4.53;;;6.30;99.90;;;;;;4956866;28;20571;-71
2023/10/20 09:15:42;;;;;;;5.68;4.28;;;6.30;99.90;;;;;;4956548;28;20391;-71
2023/10/20 09:18:10;;;;;;;6.88;5.25;;;6.30;99.90;;;;;;4956499;28;20229;-71
2023/10/20 09:20:37;;;;;;;6.55;4.20;;;6.40;99.90;;;;;;4956341;28;20283;-72
2023/10/20 09:23:09;;;;;;;6.43;4.90;;;6.30;99.90;;;;;;4956669;28;20291;-72
2023/10/20 09:25:36;;;;;;;8.48;5.15;;;6.30;99.90;;;;;;4956381;28;21023;-71
2023/10/20 09:28:03;;;;;;;5.22;4.85;;;6.30;99.90;;;;;;4956311;28;20680;-71
2023/10/20 09:30:30;;;;;;;5.18;4.78;;;6.40;99.90;;;;;;4956050;28;20268;-72
2023/10/20 09:32:59;;;;;;;9.23;5.18;;;6.40;99.90;;;;;;4955823;28;20216;-72
2023/10/20 09:35:26;;;;;;;5.95;4.10;;;6.40;99.90;;;;;;4955679;28;20249;-72
2023/10/20 09:37:54;;;;;;;6.22;4.65;;;6.40;99.90;;;;;;4955553;28;20711;-71
2023/10/20 09:40:22;;;;;;;6.20;4.95;;;6.40;99.90;;;;;;4954507;28;20213;-71
2023/10/20 09:43:02;;;;;;;6.70;4.30;;;6.30;99.90;;;;;;4955905;28;20216;-71
2023/10/20 09:45:33;;;;;;;4.88;4.45;;;6.30;99.90;;;;;;4955346;28;20216;-71
2023/10/20 09:48:05;;;;;;;6.53;4.80;;;6.40;99.90;;;;;;4955706;28;20660;-71
2023/10/20 09:50:33;;;;;;;4.47;3.53;;;6.30;99.90;;;;;;4955526;28;20233;-72
2023/10/20 09:53:01;;;;;;;4.35;3.95;;;6.30;99.90;;;;;;4955673;28;20224;-69
2023/10/20 09:55:27;;;;;;;5.93;4.65;;;6.30;99.90;;;;;;4955243;28;20749;-69
2023/10/20 09:57:54;;;;;;;4.72;4.00;;;6.40;99.90;;;;;;4955253;28;20213;-69
2023/10/20 10:00:30;;;;;;;6.03;4.45;;;6.40;99.90;;;;;;4955108;28;20236;-69
2023/10/20 10:02:58;;;;;;;4.53;4.20;;;6.30;99.90;;;;;;4955251;28;20219;-69
2023/10/20 10:05:27;;;;;;;7.30;4.45;;;6.40;99.90;;;;;;4955097;28;20225;-69
2023/10/20 10:08:05;;;;;;;3.85;3.60;;;6.40;99.90;;;;;;4955561;28;20213;-69
2023/10/20 10:10:33;;;;;;;4.00;3.70;;;6.40;99.90;;;;;;4955523;28;20323;-69
2023/10/20 10:13:01;;;;;;;5.00;3.90;;;6.40;99.90;;;;;;4955159;28;20214;-69
2023/10/20 10:15:37;;;;;;;8.63;5.18;;;6.40;99.90;;;;;;4954862;28;20231;-70
2023/10/20 10:18:09;;;;;;;4.45;4.00;;;6.40;99.90;;;;;;4990915;23;20216;-70
2023/10/20 10:20:45;;;;;;;4.97;4.55;;;6.40;99.90;;;;;;4928687;29;20273;-71
2023/10/20 10:23:14;;;;;;;6.50;4.05;;;6.40;99.90;;;;;;4936345;29;20649;-71
2023/10/20 10:25:42;;;;;;;5.15;4.72;;;6.40;99.90;;;;;;4935829;29;20660;-71
2023/10/20 10:28:11;;;;;;;4.95;3.90;;;6.40;99.90;;;;;;4935945;29;20241;-71
2023/10/20 10:30:38;;;;;;;3.88;3.58;;;6.40;99.90;;;;;;4936532;29;20618;-71
2023/10/20 10:33:08;;;;;;;5.80;3.45;;;6.40;99.90;;;;;;4936491;29;20245;-72
2023/10/20 10:35:35;;;;;;;6.13;5.03;;;6.40;99.90;;;;;;4936386;29;20609;-71
2023/10/20 10:38:06;;;;;;;3.83;3.30;;;6.40;99.90;;;;;;4935945;29;20242;-71
2023/10/20 10:40:34;;;;;;;4.88;4.20;;;6.40;99.90;;;;;;4935879;29;20237;-71
2023/10/20 10:43:00;;;;;;;5.32;3.08;;;6.40;99.90;;;;;;4936342;29;20245;-71
2023/10/20 10:45:30;;;;;;;3.72;3.42;;;6.40;99.90;;;;;;4935924;29;20233;-71
2023/10/20 10:48:05;;;;;;;4.43;4.13;;;6.40;99.90;;;;;;4936134;29;20228;-72
2023/10/20 10:50:32;;;;;;;6.22;4.55;;;6.40;99.90;;;;;;4935517;29;20214;-72
2023/10/20 10:52:59;;;;;;;4.75;3.60;;;6.50;99.90;;;;;;4935895;29;20317;-72
2023/10/20 10:55:27;;;;;;;5.28;4.80;;;6.50;99.90;;;;;;4936690;29;20216;-73
2023/10/20 10:57:54;;;;;;;5.30;4.70;;;6.50;99.90;;;;;;4936911;29;20209;-73
2023/10/20 11:00:21;;;;;;;6.32;4.30;;;6.50;99.90;;;;;;4936804;29;20221;-73
2023/10/20 11:02:49;;;;;;;4.82;3.50;;;6.50;99.90;;;;;;4936641;29;20213;-73
2023/10/20 11:05:16;;;;;;;3.65;3.35;;;6.50;99.90;;;;;;4936702;29;20218;-73
2023/10/20 11:07:56;;;;;;;3.63;3.40;;;6.50;99.90;;;;;;4937569;29;20217;-73
2023/10/20 11:10:26;;;;;;;4.38;3.78;;;6.50;99.90;;;;;;4936796;29;20221;-73
2023/10/20 11:12:55;;;;;;;4.10;3.38;;;6.50;99.90;;;;;;4936934;29;20245;-73
2023/10/20 11:15:21;;;;;;;4.22;3.95;;;6.50;99.90;;;;;;4936890;29;20214;-73
2023/10/20 11:17:49;;;;;;;5.00;4.50;;;6.50;99.90;;;;;;4936338;29;20210;-73
2023/10/20 11:20:20;;;;;;;4.47;3.97;;;6.50;99.90;;;;;;4937035;29;20241;-73
2023/10/20 11:22:52;;;;;;;5.00;4.15;;;6.60;99.90;;;;;;4936701;29;20217;-73
2023/10/20 11:25:19;;;;;;;6.03;4.03;;;6.50;99.90;;;;;;4936844;29;20214;-74
2023/10/20 11:27:53;;;;;;;3.25;3.03;;;6.50;99.90;;;;;;4936719;29;20213;-74
2023/10/20 11:30:25;;;;;;;3.83;3.47;;;6.60;99.90;;;;;;4936444;29;20220;-73
2023/10/20 11:32:53;;;;;;;6.82;4.40;;;6.60;99.90;;;;;;4936820;29;20278;-74
2023/10/20 11:35:21;;;;;;;3.08;2.88;;;6.60;99.90;;;;;;4936573;29;20210;-74
2023/10/20 11:37:48;;;;;;;3.72;2.88;;;6.60;99.90;;;;;;4936579;29;20220;-74
2023/10/20 11:40:15;;;;;;;3.28;3.13;;;6.60;99.90;;;;;;4936138;29;20683;-73
2023/10/20 11:42:42;;;;;;;2.60;2.40;;;6.60;99.90;;;;;;4934920;29;20218;-73
2023/10/20 11:45:10;;;;;;;4.82;2.50;;;6.60;99.90;;;;;;4935021;29;20217;-73
2023/10/20 11:47:38;;;;;;;4.00;3.65;;;6.60;99.90;;;;;;4935255;29;20293;-73
2023/10/20 11:50:08;;;;;;;4.10;3.70;;;6.60;99.90;;;;;;4934913;29;20234;-73
2023/10/20 11:52:35;;;;;;;2.95;2.75;;;6.60;99.90;;;;;;4934894;29;20257;-72
2023/10/20 11:55:03;;;;;;;3.33;3.03;;;6.60;99.90;;;;;;4934816;29;20493;-72
2023/10/20 11:57:30;;;;;;;2.83;2.72;;;6.60;99.90;;;;;;4934537;29;20304;-73
2023/10/20 11:59:57;;;;;;;5.07;2.65;;;6.50;99.90;;;;;;4934877;29;20246;-73
2023/10/20 12:02:24;;;;;;;3.40;3.10;;;6.60;99.90;;;;;;4934343;29;20594;-73
2023/10/20 12:04:52;;;;;;;5.30;3.20;;;6.50;99.90;;;;;;4934486;29;20273;-73
2023/10/20 12:07:19;;;;;;;2.58;2.45;;;6.60;99.90;;;;;;4934340;29;20213;-73
2023/10/20 12:09:46;;;;;;;2.75;2.55;;;6.60;99.90;;;;;;4934498;29;20257;-73
2023/10/20 12:12:12;;;;;;;2.95;2.75;;;6.60;99.90;;;;;;4934789;29;20253;-73
2023/10/20 12:14:39;;;;;;;3.13;2.50;;;6.60;99.90;;;;;;4934919;29;20220;-73
2023/10/20 12:17:06;;;;;;;2.72;2.58;;;6.60;99.90;;;;;;4934538;29;20565;-73
2023/10/20 12:19:33;;;;;;;1.67;1.67;;;6.60;99.90;;;;;;4934617;29;20244;-73
2023/10/20 12:22:01;;;;;;;2.00;1.90;;;6.60;99.90;;;;;;4934795;29;20297;-71
2023/10/20 12:24:28;;;;;;;3.25;3.05;;;6.60;99.90;;;;;;4934297;29;20534;-71
2023/10/20 12:26:56;;;;;;;2.55;2.35;;;6.60;99.90;;;;;;4934419;29;20687;-72
2023/10/20 12:29:22;;;;;;;3.45;2.70;;;6.60;99.90;;;;;;4934515;29;20261;-72
2023/10/20 12:31:49;;;;;;;2.50;2.40;;;6.60;99.90;;;;;;4934584;29;20218;-72
2023/10/20 12:34:16;;;;;;;3.47;3.17;;;6.60;99.90;;;;;;4934318;29;20213;-72
2023/10/20 12:36:43;;;;;;;2.45;2.22;;;6.60;99.90;;;;;;4934149;29;20210;-72
2023/10/20 12:39:17;;;;;;;2.70;2.58;;;6.60;99.90;;;;;;4934055;29;20233;-71
2023/10/20 12:41:44;;;;;;;3.97;2.35;;;6.60;99.90;;;;;;4934581;29;20269;-72
2023/10/20 12:44:11;;;;;;;2.92;2.72;;;6.60;99.90;;;;;;4934381;29;20221;-72
2023/10/20 12:46:38;;;;;;;2.40;2.25;;;6.60;99.90;;;;;;4934225;29;20697;-72
2023/10/20 12:49:06;;;;;;;2.28;1.95;;;6.60;99.90;;;;;;4934284;29;20237;-72
2023/10/20 12:51:33;;;;;;;2.85;2.65;;;6.60;99.90;;;;;;4934346;29;20696;-72
2023/10/20 12:54:01;;;;;;;2.80;2.60;;;6.60;99.90;;;;;;4934363;29;20210;-72
2023/10/20 12:56:29;;;;;;;1.73;1.67;;;6.60;99.90;;;;;;4934011;29;20213;-72
2023/10/20 12:58:56;;;;;;;2.58;2.38;;;6.60;99.90;;;;;;4933867;29;20241;-72
2023/10/20 13:01:22;;;;;;;2.70;2.50;;;6.60;99.90;;;;;;4934125;29;20214;-72
2023/10/20 13:03:50;;;;;;;3.05;2.85;;;6.60;99.90;;;;;;4934076;29;20233;-72
2023/10/20 13:06:17;;;;;;;1.50;1.40;;;6.60;99.90;;;;;;4934508;29;20668;-71
2023/10/20 13:08:45;;;;;;;3.28;3.08;;;6.60;99.90;;;;;;4934023;29;20240;-73
2023/10/20 13:11:12;;;;;;;3.80;3.53;;;6.60;99.90;;;;;;4933936;29;20249;-72
2023/10/20 13:13:40;;;;;;;2.72;2.53;;;6.60;99.90;;;;;;4934697;29;20225;-72
2023/10/20 13:16:08;;;;;;;2.30;2.20;;;6.60;99.90;;;;;;4937344;29;20220;-71
2023/10/20 13:18:35;;;;;;;1.92;1.90;;;6.60;99.90;;;;;;4937290;29;20735;-71
2023/10/20 13:21:03;;;;;;;3.88;3.47;;;6.60;99.90;;;;;;4937021;29;20245;-72
2023/10/20 13:23:29;;;;;;;1.63;1.63;;;6.60;99.90;;;;;;4937591;29;20218;-72
2023/10/20 13:26:00;;;;;;;3.22;2.85;;;6.60;99.90;;;;;;4939769;29;20214;-72
2023/10/20 13:28:26;;;;;;;2.10;2.00;;;6.60;99.90;;;;;;4938248;29;20292;-72
2023/10/20 13:31:03;;;;;;;2.95;2.75;;;6.70;99.90;;;;;;4937237;29;20205;-73
2023/10/20 13:33:31;;;;;;;4.43;2.22;;;6.70;99.90;;;;;;4937302;29;20214;-72
2023/10/20 13:36:01;;;;;;;2.15;2.05;;;6.70;99.90;;;;;;4936876;29;20214;-72
2023/10/20 13:38:27;;;;;;;2.95;2.70;;;6.70;99.90;;;;;;4937375;29;20246;-72
2023/10/20 13:40:54;;;;;;;2.17;2.08;;;6.70;99.90;;;;;;4936907;29;20242;-73
2023/10/20 13:43:21;;;;;;;1.95;1.95;;;6.70;99.90;;;;;;4936816;29;20214;-72
2023/10/20 13:45:48;;;;;;;1.52;1.45;;;6.70;99.90;;;;;;4936561;29;20241;-72
2023/10/20 13:48:16;;;;;;;1.83;1.73;;;6.70;99.90;;;;;;4936830;29;20236;-72
2023/10/20 13:50:42;;;;;;;2.35;2.33;;;6.70;99.90;;;;;;4936924;29;20214;-72
2023/10/20 13:53:12;;;;;;;1.65;1.65;;;6.70;99.90;;;;;;4937160;29;20220;-71
2023/10/20 13:55:39;;;;;;;1.67;1.58;;;6.70;99.90;;;;;;4936386;29;20214;-72
2023/10/20 13:58:06;;;;;;;0.90;0.90;;;6.70;99.90;;;;;;4936614;29;20288;-72
2023/10/20 14:00:33;;;;;;;1.38;1.27;;;6.70;99.90;;;;;;4936464;29;20229;-72
2023/10/20 14:03:00;;;;;;;2.25;2.10;;;6.70;99.90;;;;;;4936751;29;20317;-73
2023/10/20 14:05:29;;;;;;;1.95;1.90;;;6.70;99.90;;;;;;4936480;29;20225;-72
2023/10/20 14:07:57;;;;;;;1.45;1.35;;;6.70;99.90;;;;;;4936539;29;20249;-72
2023/10/20 14:10:24;;;;;;;1.58;1.50;;;6.70;99.90;;;;;;4936577;29;20312;-72
2023/10/20 14:12:50;;;;;;;1.88;1.83;;;6.70;99.90;;;;;;4930722;29;20673;-72
2023/10/20 14:15:17;;;;;;;1.20;1.20;;;6.70;99.90;;;;;;4934227;29;20213;-73
2023/10/20 14:17:44;;;;;;;2.28;2.17;;;6.70;99.90;;;;;;4936169;29;20214;-72
2023/10/20 14:20:11;;;;;;;1.60;1.60;;;6.70;99.90;;;;;;4936090;29;20238;-72
2023/10/20 14:22:39;;;;;;;1.90;1.80;;;6.60;99.90;;;;;;4936399;29;20218;-72
2023/10/20 14:25:07;;;;;;;2.35;2.25;;;6.60;99.90;;;;;;4935694;29;20214;-71
2023/10/20 14:27:34;;;;;;;2.47;2.28;;;6.60;99.90;;;;;;4935776;29;20252;-72
2023/10/20 14:30:01;;;;;;;1.70;1.70;;;6.70;99.90;;;;;;4935982;29;20755;-72
2023/10/20 14:32:28;;;;;;;1.70;1.60;;;6.70;99.90;;;;;;4936327;29;20229;-72
2023/10/20 14:34:54;;;;;;;1.27;1.02;;;6.70;99.90;;;;;;4935953;29;20214;-72
2023/10/20 14:37:21;;;;;;;1.27;1.27;;;6.70;99.90;;;;;;4935857;29;20587;-72
2023/10/20 14:39:49;;;;;;;1.52;1.48;;;6.70;99.90;;;;;;4935845;29;20237;-72
2023/10/20 14:42:16;;;;;;;1.48;1.45;;;6.70;99.90;;;;;;4936346;29;20233;-72
2023/10/20 14:44:43;;;;;;;1.80;1.80;;;6.70;99.90;;;;;;4936312;29;20229;-72
2023/10/20 14:47:11;;;;;;;1.20;1.20;;;6.70;99.90;;;;;;4935577;29;20210;-72
2023/10/20 14:49:38;;;;;;;1.23;1.23;;;6.70;99.90;;;;;;4936410;29;20241;-72
2023/10/20 14:52:05;;;;;;;1.20;1.20;;;6.70;99.90;;;;;;4936202;29;20217;-72
2023/10/20 14:54:32;;;;;;;1.45;1.45;;;6.70;99.90;;;;;;4935692;29;20240;-72
2023/10/20 14:57:00;;;;;;;1.10;1.10;;;6.70;99.90;;;;;;4935734;29;20238;-73
2023/10/20 14:59:27;;;;;;;1.40;1.40;;;6.70;99.90;;;;;;4935747;29;20230;-72
2023/10/20 15:01:54;;;;;;;1.60;1.60;;;6.70;99.90;;;;;;4935781;29;20582;-72
2023/10/20 15:04:21;;;;;;;1.90;1.80;;;6.70;99.90;;;;;;4935614;29;20220;-72
2023/10/20 15:06:48;;;;;;;1.23;1.23;;;6.70;99.90;;;;;;4935645;29;20308;-72
2023/10/20 15:09:15;;;;;;;1.20;1.20;;;6.70;99.90;;;;;;4935184;29;20234;-72
2023/10/20 15:11:43;;;;;;;1.38;1.38;;;6.70;99.90;;;;;;4935479;29;20224;-72
2023/10/20 15:14:11;;;;;;;1.20;1.20;;;6.70;99.90;;;;;;4935629;29;20218;-72
2023/10/20 15:16:38;;;;;;;1.00;1.00;;;6.70;99.90;;;;;;4935186;29;20226;-72
2023/10/20 15:19:05;;;;;;;1.23;1.23;;;6.70;99.90;;;;;;4934816;29;20245;-73
2023/10/20 15:21:31;;;;;;;1.15;1.15;;;6.60;99.90;;;;;;4934575;29;20325;-73
2023/10/20 15:23:58;;;;;;;1.02;1.00;;;6.70;99.90;;;;;;4935218;29;20308;-73
2023/10/20 15:26:25;;;;;;;1.70;1.70;;;6.70;99.90;;;;;;4934498;29;20216;-73
2023/10/20 15:28:52;;;;;;;1.80;1.65;;;6.70;99.90;;;;;;4934902;29;20238;-73
2023/10/20 15:31:20;;;;;;;0.80;0.80;;;6.60;99.90;;;;;;4934748;29;20641;-72
2023/10/20 15:33:47;;;;;;;1.63;1.60;;;6.70;99.90;;;;;;4934633;29;20217;-73
2023/10/20 15:36:14;;;;;;;1.20;1.20;;;6.70;99.90;;;;;;4934107;29;20224;-72
2023/10/20 15:38:41;;;;;;;1.30;1.20;;;6.70;99.90;;;;;;4933539;29;20233;-73
2023/10/20 15:41:08;;;;;;;0.68;0.68;;;6.70;99.90;;;;;;4934374;29;20234;-73
2023/10/20 15:43:35;;;;;;;1.90;1.90;;;6.70;99.90;;;;;;4934544;29;20687;-73
2023/10/20 15:46:07;;;;;;;1.00;1.00;;;6.70;99.90;;;;;;4934127;29;20245;-72
2023/10/20 15:48:35;;;;;;;1.48;1.45;;;6.70;99.90;;;;;;4934526;29;20237;-73
2023/10/20 15:51:04;;;;;;;1.00;1.00;;;6.70;99.90;;;;;;4934445;29;20767;-73
2023/10/20 15:53:30;;;;;;;0.60;0.60;;;6.70;99.90;;;;;;4934556;29;20667;-72
2023/10/20 15:55:57;;;;;;;1.05;1.05;;;6.70;99.90;;;;;;4934090;29;20217;-73
2023/10/20 15:58:24;;;;;;;0.93;0.93;;;6.70;99.90;;;;;;4934057;29;20251;-73
2023/10/20 16:00:58;;;;;;;2.10;2.10;;;6.70;99.90;;;;;;4934118;29;20521;-73
2023/10/20 16:03:24;;;;;;;0.70;0.70;;;6.70;99.90;;;;;;4934018;29;20217;-73
2023/10/20 16:05:52;;;;;;;0.57;0.57;;;6.80;99.90;;;;;;4934373;29;20214;-74
2023/10/20 16:08:19;;;;;;;0.90;0.90;;;6.70;99.90;;;;;;4934075;29;20230;-72
2023/10/20 16:10:46;;;;;;;0.77;0.77;;;6.70;99.90;;;;;;4934146;29;20210;-72
2023/10/20 16:13:13;;;;;;;0.95;0.95;;;6.70;99.90;;;;;;4934176;29;20241;-73
2023/10/20 16:15:39;;;;;;;1.00;0.80;;;6.70;99.90;;;;;;4933943;29;20217;-73
2023/10/20 16:18:06;;;;;;;1.15;1.15;;;6.70;99.90;;;;;;4933716;29;20555;-73
2023/10/20 16:20:33;;;;;;;1.13;0.90;;;6.70;99.90;;;;;;4965412;23;20261;-69
2023/10/20 16:23:02;;;;;;;1.05;1.05;;;6.70;99.90;;;;;;4934524;29;20210;-69
2023/10/20 16:25:29;;;;;;;1.27;1.27;;;6.70;99.90;;;;;;4934210;29;20744;-69
2023/10/20 16:27:56;;;;;;;1.10;1.10;;;6.70;99.90;;;;;;4934398;29;20228;-69
2023/10/20 16:30:22;;;;;;;0.98;0.98;;;6.70;99.90;;;;;;4951808;29;20251;-69
2023/10/20 16:32:49;;;;;;;0.50;0.50;;;6.70;99.90;;;;;;4953353;28;20579;-70
2023/10/20 16:35:16;;;;;;;0.85;0.85;;;6.70;99.90;;;;;;4952938;28;20213;-69
2023/10/20 16:37:43;;;;;;;0.70;0.70;;;6.70;99.90;;;;;;4952980;28;20217;-71
2023/10/20 16:40:13;;;;;;;0.73;0.73;;;6.70;99.90;;;;;;4953268;28;20241;-70
2023/10/20 16:42:40;;;;;;;0.50;0.50;;;6.70;99.90;;;;;;4953015;28;20217;-71
2023/10/20 16:45:09;;;;;;;1.10;0.88;;;6.60;99.90;;;;;;4952827;28;20606;-70
2023/10/20 16:47:36;;;;;;;0.80;0.80;;;6.60;99.90;;;;;;4938037;29;20213;-70
2023/10/20 16:50:03;;;;;;;1.08;1.02;;;6.60;99.90;;;;;;4955524;28;20606;-70
2023/10/20 16:52:30;;;;;;;1.30;1.20;;;6.60;99.90;;;;;;4958384;28;20209;-70
2023/10/20 16:54:58;;;;;;;1.33;1.33;;;6.60;99.90;;;;;;4956928;28;20213;-70
2023/10/20 16:57:26;;;;;;;0.77;0.77;;;6.70;99.90;;;;;;4956326;28;20217;-70
2023/10/20 16:59:53;;;;;;;0.77;0.77;;;6.60;99.90;;;;;;4956531;28;20313;-71
2023/10/20 17:02:20;;;;;;;0.70;0.70;;;6.60;99.90;;;;;;4956412;28;20220;-71
2023/10/20 17:04:47;;;;;;;1.05;1.05;;;6.60;99.90;;;;;;4956443;28;20664;-70
2023/10/20 17:07:13;;;;;;;0.38;0.38;;;6.60;99.90;;;;;;4956391;28;20217;-70
2023/10/20 17:09:40;;;;;;;0.80;0.80;;;6.60;99.90;;;;;;4956507;28;20244;-70
2023/10/20 17:12:08;;;;;;;2.45;1.15;;;6.60;99.90;;;;;;4956341;28;20216;-70
2023/10/20 17:14:36;;;;;;;0.90;0.90;;;6.60;99.90;;;;;;4956485;28;20659;-70
2023/10/20 17:17:03;;;;;;;0.95;0.95;;;6.50;99.90;;;;;;4956546;28;20216;-71
2023/10/20 17:19:30;;;;;;;0.70;0.70;;;6.50;99.90;;;;;;4955783;28;20789;-70
2023/10/20 17:21:57;;;;;;;0.75;0.70;;;6.50;99.90;;;;;;4956417;28;20244;-70